sensor_id;sensor_type;location;lat;lon;timestamp;temperature;humidity
13880;DHT22;7010;48.200;16.332;2022-12-29T00:01:09;2.20;99.90
13880;DHT22;7010;48.200;16.332;2022-12-29T00:03:37;2.10;99.90
13880;DHT22;7010;48.200;16.332;2022-12-29T00:06:07;2.10;99.90
13880;DHT22;7010;48.200;16.332;2022-12-29T00:08:35;2.10;99.90
13880;DHT22;7010;48.200;16.332;2022-12-29T00:11:11;2.00;99.90
13880;DHT22;7010;48.200;16.332;2022-12-29T00:13:39;2.00;99.90
13880;DHT22;7010;48.200;16.332;2022-12-29T00:16:25;2.00;99.90
13880;DHT22;7010;48.200;16.332;2022-12-29T00:18:53;2.00;99.90
13880;DHT22;7010;48.200;16.332;2022-12-29T00:21:24;2.00;99.90
13880;DHT22;7010;48.200;16.332;2022-12-29T00:24:12;2.00;99.90
13880;DHT22;7010;48.200;16.332;2022-12-29T00:27:09;1.90;99.90
13880;DHT22;7010;48.200;16.332;2022-12-29T00:29:55;1.90;99.90
13880;DHT22;7010;48.200;16.332;2022-12-29T00:32:40;1.90;99.90
13880;DHT22;7010;48.200;16.332;2022-12-29T00:35:28;1.90;99.90
13880;DHT22;7010;48.200;16.332;2022-12-29T00:38:02;1.90;99.90
13880;DHT22;7010;48.200;16.332;2022-12-29T00:40:48;1.90;99.90
13880;DHT22;7010;48.200;16.332;2022-12-29T00:43:34;1.80;99.90
13880;DHT22;7010;48.200;16.332;2022-12-29T00:46:19;1.80;99.90
13880;DHT22;7010;48.200;16.332;2022-12-29T00:48:47;1.90;99.90
13880;DHT22;7010;48.200;16.332;2022-12-29T00:51:33;1.80;99.90
13880;DHT22;7010;48.200;16.332;2022-12-29T00:54:03;1.80;99.90
13880;DHT22;7010;48.200;16.332;2022-12-29T00:56:31;1.90;99.90
13880;DHT22;7010;48.200;16.332;2022-12-29T00:59:00;1.90;99.90
13880;DHT22;7010;48.200;16.332;2022-12-29T01:01:29;1.90;99.90
13880;DHT22;7010;48.200;16.332;2022-12-29T01:03:57;1.90;99.90
13880;DHT22;7010;48.200;16.332;2022-12-29T01:06:30;1.80;99.90
13880;DHT22;7010;48.200;16.332;2022-12-29T01:08:59;1.80;99.90
13880;DHT22;7010;48.200;16.332;2022-12-29T01:11:46;1.80;99.90
13880;DHT22;7010;48.200;16.332;2022-12-29T01:14:15;1.70;99.90
13880;DHT22;7010;48.200;16.332;2022-12-29T01:16:44;1.70;99.90
13880;DHT22;7010;48.200;16.332;2022-12-29T01:19:13;1.70;99.90
13880;DHT22;7010;48.200;16.332;2022-12-29T01:21:41;1.70;99.90
13880;DHT22;7010;48.200;16.332;2022-12-29T01:24:09;1.60;99.90
13880;DHT22;7010;48.200;16.332;2022-12-29T01:26:38;1.60;99.90
13880;DHT22;7010;48.200;16.332;2022-12-29T01:29:08;1.60;99.90
13880;DHT22;7010;48.200;16.332;2022-12-29T01:31:37;1.50;99.90
13880;DHT22;7010;48.200;16.332;2022-12-29T01:34:06;1.50;99.90
13880;DHT22;7010;48.200;16.332;2022-12-29T01:36:34;1.50;99.90
13880;DHT22;7010;48.200;16.332;2022-12-29T01:39:02;1.50;99.90
13880;DHT22;7010;48.200;16.332;2022-12-29T01:41:31;1.40;99.90
13880;DHT22;7010;48.200;16.332;2022-12-29T01:44:00;1.40;99.90
13880;DHT22;7010;48.200;16.332;2022-12-29T01:46:33;1.40;99.90
13880;DHT22;7010;48.200;16.332;2022-12-29T01:49:08;1.40;99.90
13880;DHT22;7010;48.200;16.332;2022-12-29T01:51:42;1.40;99.90
13880;DHT22;7010;48.200;16.332;2022-12-29T01:54:22;1.40;99.90
13880;DHT22;7010;48.200;16.332;2022-12-29T01:56:52;1.40;99.90
13880;DHT22;7010;48.200;16.332;2022-12-29T01:59:32;1.40;99.90
13880;DHT22;7010;48.200;16.332;2022-12-29T02:02:03;1.40;99.90
13880;DHT22;7010;48.200;16.332;2022-12-29T02:04:33;1.40;99.90
13880;DHT22;7010;48.200;16.332;2022-12-29T02:07:04;1.40;99.90
13880;DHT22;7010;48.200;16.332;2022-12-29T02:09:34;1.50;99.90
13880;DHT22;7010;48.200;16.332;2022-12-29T02:12:02;1.50;99.90
13880;DHT22;7010;48.200;16.332;2022-12-29T02:14:31;1.50;99.90
13880;DHT22;7010;48.200;16.332;2022-12-29T02:17:07;1.50;99.90
13880;DHT22;7010;48.200;16.332;2022-12-29T02:20:02;1.50;99.90
13880;DHT22;7010;48.200;16.332;2022-12-29T02:22:44;1.50;99.90
13880;DHT22;7010;48.200;16.332;2022-12-29T02:25:37;1.50;99.90
13880;DHT22;7010;48.200;16.332;2022-12-29T02:31:17;1.50;99.90
13880;DHT22;7010;48.200;16.332;2022-12-29T02:33:55;1.40;99.90
13880;DHT22;7010;48.200;16.332;2022-12-29T02:36:33;1.40;99.90
13880;DHT22;7010;48.200;16.332;2022-12-29T02:39:12;1.40;99.90
13880;DHT22;7010;48.200;16.332;2022-12-29T02:41:46;1.30;99.90
13880;DHT22;7010;48.200;16.332;2022-12-29T02:44:25;1.30;99.90
13880;DHT22;7010;48.200;16.332;2022-12-29T02:47:00;1.30;99.90
13880;DHT22;7010;48.200;16.332;2022-12-29T02:49:34;1.20;99.90
13880;DHT22;7010;48.200;16.332;2022-12-29T02:52:07;1.20;99.90
13880;DHT22;7010;48.200;16.332;2022-12-29T02:54:37;1.20;99.90
13880;DHT22;7010;48.200;16.332;2022-12-29T02:57:15;1.20;99.90
13880;DHT22;7010;48.200;16.332;2022-12-29T02:59:57;1.10;99.90
13880;DHT22;7010;48.200;16.332;2022-12-29T03:02:45;1.10;99.90
13880;DHT22;7010;48.200;16.332;2022-12-29T03:05:22;1.10;99.90
13880;DHT22;7010;48.200;16.332;2022-12-29T03:08:00;1.10;99.90
13880;DHT22;7010;48.200;16.332;2022-12-29T03:10:37;1.10;99.90
13880;DHT22;7010;48.200;16.332;2022-12-29T03:13:20;1.10;99.90
13880;DHT22;7010;48.200;16.332;2022-12-29T03:16:15;1.10;99.90
13880;DHT22;7010;48.200;16.332;2022-12-29T03:18:55;1.10;99.90
13880;DHT22;7010;48.200;16.332;2022-12-29T03:21:31;1.10;99.90
13880;DHT22;7010;48.200;16.332;2022-12-29T03:24:28;1.10;99.90
13880;DHT22;7010;48.200;16.332;2022-12-29T03:26:59;1.10;99.90
13880;DHT22;7010;48.200;16.332;2022-12-29T03:29:30;1.10;99.90
13880;DHT22;7010;48.200;16.332;2022-12-29T03:32:01;1.10;99.90
13880;DHT22;7010;48.200;16.332;2022-12-29T03:34:33;1.10;99.90
13880;DHT22;7010;48.200;16.332;2022-12-29T03:37:06;1.10;99.90
13880;DHT22;7010;48.200;16.332;2022-12-29T03:39:35;1.20;99.90
13880;DHT22;7010;48.200;16.332;2022-12-29T03:42:06;1.10;99.90
13880;DHT22;7010;48.200;16.332;2022-12-29T03:44:39;1.10;99.90
13880;DHT22;7010;48.200;16.332;2022-12-29T03:47:09;1.20;99.90
13880;DHT22;7010;48.200;16.332;2022-12-29T03:49:41;1.20;99.90
13880;DHT22;7010;48.200;16.332;2022-12-29T03:52:09;1.20;99.90
13880;DHT22;7010;48.200;16.332;2022-12-29T03:54:37;1.20;99.90
13880;DHT22;7010;48.200;16.332;2022-12-29T03:57:05;1.20;99.90
13880;DHT22;7010;48.200;16.332;2022-12-29T03:59:33;1.20;99.90
13880;DHT22;7010;48.200;16.332;2022-12-29T04:02:02;1.20;99.90
13880;DHT22;7010;48.200;16.332;2022-12-29T04:04:30;1.20;99.90
13880;DHT22;7010;48.200;16.332;2022-12-29T04:07:00;1.20;99.90
13880;DHT22;7010;48.200;16.332;2022-12-29T04:09:29;1.20;99.90
13880;DHT22;7010;48.200;16.332;2022-12-29T04:11:58;1.30;99.90
13880;DHT22;7010;48.200;16.332;2022-12-29T04:14:26;1.20;99.90
13880;DHT22;7010;48.200;16.332;2022-12-29T04:16:54;1.30;99.90
13880;DHT22;7010;48.200;16.332;2022-12-29T04:19:23;1.30;99.90
13880;DHT22;7010;48.200;16.332;2022-12-29T04:21:51;1.30;99.90
13880;DHT22;7010;48.200;16.332;2022-12-29T04:24:21;1.30;99.90
13880;DHT22;7010;48.200;16.332;2022-12-29T04:26:49;1.30;99.90
13880;DHT22;7010;48.200;16.332;2022-12-29T04:29:18;1.30;99.90
13880;DHT22;7010;48.200;16.332;2022-12-29T04:31:46;1.30;99.90
13880;DHT22;7010;48.200;16.332;2022-12-29T04:34:14;1.30;99.90
13880;DHT22;7010;48.200;16.332;2022-12-29T04:36:44;1.20;99.90
13880;DHT22;7010;48.200;16.332;2022-12-29T04:39:12;1.20;99.90
13880;DHT22;7010;48.200;16.332;2022-12-29T04:41:42;1.20;99.90
13880;DHT22;7010;48.200;16.332;2022-12-29T04:44:10;1.20;99.90
13880;DHT22;7010;48.200;16.332;2022-12-29T04:46:38;1.20;99.90
13880;DHT22;7010;48.200;16.332;2022-12-29T04:49:07;1.10;99.90
13880;DHT22;7010;48.200;16.332;2022-12-29T04:51:35;1.20;99.90
13880;DHT22;7010;48.200;16.332;2022-12-29T04:54:04;1.10;99.90
13880;DHT22;7010;48.200;16.332;2022-12-29T04:56:32;1.10;99.90
13880;DHT22;7010;48.200;16.332;2022-12-29T04:59:02;1.10;99.90
13880;DHT22;7010;48.200;16.332;2022-12-29T05:01:30;1.10;99.90
13880;DHT22;7010;48.200;16.332;2022-12-29T05:03:59;1.10;99.90
13880;DHT22;7010;48.200;16.332;2022-12-29T05:06:28;1.10;99.90
13880;DHT22;7010;48.200;16.332;2022-12-29T05:08:56;1.10;99.90
13880;DHT22;7010;48.200;16.332;2022-12-29T05:11:24;1.10;99.90
13880;DHT22;7010;48.200;16.332;2022-12-29T05:13:52;1.00;99.90
13880;DHT22;7010;48.200;16.332;2022-12-29T05:16:22;1.10;99.90
13880;DHT22;7010;48.200;16.332;2022-12-29T05:18:51;1.00;99.90
13880;DHT22;7010;48.200;16.332;2022-12-29T05:21:19;1.10;99.90
13880;DHT22;7010;48.200;16.332;2022-12-29T05:23:47;1.00;99.90
13880;DHT22;7010;48.200;16.332;2022-12-29T05:26:15;1.00;99.90
13880;DHT22;7010;48.200;16.332;2022-12-29T05:28:44;1.10;99.90
13880;DHT22;7010;48.200;16.332;2022-12-29T05:31:12;1.10;99.90
13880;DHT22;7010;48.200;16.332;2022-12-29T05:33:42;1.00;99.90
13880;DHT22;7010;48.200;16.332;2022-12-29T05:36:11;1.00;99.90
13880;DHT22;7010;48.200;16.332;2022-12-29T05:38:40;1.00;99.90
13880;DHT22;7010;48.200;16.332;2022-12-29T05:41:08;1.00;99.90
13880;DHT22;7010;48.200;16.332;2022-12-29T05:43:37;1.00;99.90
13880;DHT22;7010;48.200;16.332;2022-12-29T05:46:06;1.00;99.90
13880;DHT22;7010;48.200;16.332;2022-12-29T05:48:34;1.00;99.90
13880;DHT22;7010;48.200;16.332;2022-12-29T05:51:05;1.00;99.90
13880;DHT22;7010;48.200;16.332;2022-12-29T05:53:33;1.00;99.90
13880;DHT22;7010;48.200;16.332;2022-12-29T05:56:02;1.00;99.90
13880;DHT22;7010;48.200;16.332;2022-12-29T05:58:30;1.00;99.90
13880;DHT22;7010;48.200;16.332;2022-12-29T06:00:58;1.00;99.90
13880;DHT22;7010;48.200;16.332;2022-12-29T06:03:27;1.00;99.90
13880;DHT22;7010;48.200;16.332;2022-12-29T06:05:56;1.00;99.90
13880;DHT22;7010;48.200;16.332;2022-12-29T06:08:25;1.00;99.90
13880;DHT22;7010;48.200;16.332;2022-12-29T06:10:54;1.00;99.90
13880;DHT22;7010;48.200;16.332;2022-12-29T06:13:22;0.90;99.90
13880;DHT22;7010;48.200;16.332;2022-12-29T06:15:50;0.90;99.90
13880;DHT22;7010;48.200;16.332;2022-12-29T06:18:19;0.80;99.90
13880;DHT22;7010;48.200;16.332;2022-12-29T06:20:47;0.80;99.90
13880;DHT22;7010;48.200;16.332;2022-12-29T06:23:16;0.70;99.90
13880;DHT22;7010;48.200;16.332;2022-12-29T06:25:47;0.70;99.90
13880;DHT22;7010;48.200;16.332;2022-12-29T06:28:16;0.70;99.90
13880;DHT22;7010;48.200;16.332;2022-12-29T06:30:44;0.60;99.90
13880;DHT22;7010;48.200;16.332;2022-12-29T06:33:13;0.60;99.90
13880;DHT22;7010;48.200;16.332;2022-12-29T06:35:43;0.60;99.90
13880;DHT22;7010;48.200;16.332;2022-12-29T06:38:12;0.70;99.90
13880;DHT22;7010;48.200;16.332;2022-12-29T06:40:42;0.70;99.90
13880;DHT22;7010;48.200;16.332;2022-12-29T06:43:13;0.80;99.90
13880;DHT22;7010;48.200;16.332;2022-12-29T06:45:41;0.80;99.90
13880;DHT22;7010;48.200;16.332;2022-12-29T06:48:10;0.90;99.90
13880;DHT22;7010;48.200;16.332;2022-12-29T06:50:38;1.00;99.90
13880;DHT22;7010;48.200;16.332;2022-12-29T06:53:07;1.00;99.90
13880;DHT22;7010;48.200;16.332;2022-12-29T06:55:35;1.00;99.90
13880;DHT22;7010;48.200;16.332;2022-12-29T06:58:03;1.00;99.90
13880;DHT22;7010;48.200;16.332;2022-12-29T07:00:33;1.10;99.90
13880;DHT22;7010;48.200;16.332;2022-12-29T07:03:01;1.10;99.90
13880;DHT22;7010;48.200;16.332;2022-12-29T07:05:29;1.10;99.90
13880;DHT22;7010;48.200;16.332;2022-12-29T07:07:59;1.00;99.90
13880;DHT22;7010;48.200;16.332;2022-12-29T07:10:28;1.00;99.90
13880;DHT22;7010;48.200;16.332;2022-12-29T07:12:56;1.00;99.90
13880;DHT22;7010;48.200;16.332;2022-12-29T07:15:24;1.00;99.90
13880;DHT22;7010;48.200;16.332;2022-12-29T07:17:54;0.90;99.90
13880;DHT22;7010;48.200;16.332;2022-12-29T07:20:22;0.90;99.90
13880;DHT22;7010;48.200;16.332;2022-12-29T07:22:53;0.90;99.90
13880;DHT22;7010;48.200;16.332;2022-12-29T07:25:21;0.90;99.90
13880;DHT22;7010;48.200;16.332;2022-12-29T07:27:49;0.80;99.90
13880;DHT22;7010;48.200;16.332;2022-12-29T07:30:18;0.90;99.90
13880;DHT22;7010;48.200;16.332;2022-12-29T07:32:46;0.80;99.90
13880;DHT22;7010;48.200;16.332;2022-12-29T07:35:16;0.80;99.90
13880;DHT22;7010;48.200;16.332;2022-12-29T07:37:44;0.80;99.90
13880;DHT22;7010;48.200;16.332;2022-12-29T07:40:12;0.80;99.90
13880;DHT22;7010;48.200;16.332;2022-12-29T07:42:41;0.90;99.90
13880;DHT22;7010;48.200;16.332;2022-12-29T07:45:10;0.90;99.90
13880;DHT22;7010;48.200;16.332;2022-12-29T07:47:38;0.90;99.90
13880;DHT22;7010;48.200;16.332;2022-12-29T07:50:07;0.90;99.90
13880;DHT22;7010;48.200;16.332;2022-12-29T07:52:36;0.90;99.90
13880;DHT22;7010;48.200;16.332;2022-12-29T07:55:06;1.00;99.90
13880;DHT22;7010;48.200;16.332;2022-12-29T07:57:34;0.90;99.90
13880;DHT22;7010;48.200;16.332;2022-12-29T08:00:03;1.00;99.90
13880;DHT22;7010;48.200;16.332;2022-12-29T08:02:31;1.00;99.90
13880;DHT22;7010;48.200;16.332;2022-12-29T08:04:59;1.00;99.90
13880;DHT22;7010;48.200;16.332;2022-12-29T08:07:28;1.00;99.90
13880;DHT22;7010;48.200;16.332;2022-12-29T08:09:58;1.00;99.90
13880;DHT22;7010;48.200;16.332;2022-12-29T08:12:26;1.00;99.90
13880;DHT22;7010;48.200;16.332;2022-12-29T08:14:54;1.00;99.90
13880;DHT22;7010;48.200;16.332;2022-12-29T08:17:22;1.00;99.90
13880;DHT22;7010;48.200;16.332;2022-12-29T08:19:50;1.00;99.90
13880;DHT22;7010;48.200;16.332;2022-12-29T08:22:19;1.00;99.90
13880;DHT22;7010;48.200;16.332;2022-12-29T08:24:47;1.00;99.90
13880;DHT22;7010;48.200;16.332;2022-12-29T08:27:17;1.00;99.90
13880;DHT22;7010;48.200;16.332;2022-12-29T08:29:47;1.00;99.90
13880;DHT22;7010;48.200;16.332;2022-12-29T08:32:16;0.90;99.90
13880;DHT22;7010;48.200;16.332;2022-12-29T08:34:47;0.80;99.90
13880;DHT22;7010;48.200;16.332;2022-12-29T08:37:15;0.80;99.90
13880;DHT22;7010;48.200;16.332;2022-12-29T08:39:43;0.80;99.90
13880;DHT22;7010;48.200;16.332;2022-12-29T08:42:11;0.80;99.90
13880;DHT22;7010;48.200;16.332;2022-12-29T08:44:41;0.90;99.90
13880;DHT22;7010;48.200;16.332;2022-12-29T08:47:10;0.90;99.90
13880;DHT22;7010;48.200;16.332;2022-12-29T08:49:38;0.90;99.90
13880;DHT22;7010;48.200;16.332;2022-12-29T08:52:07;0.90;99.90
13880;DHT22;7010;48.200;16.332;2022-12-29T08:54:36;0.80;99.90
13880;DHT22;7010;48.200;16.332;2022-12-29T08:57:04;0.90;99.90
13880;DHT22;7010;48.200;16.332;2022-12-29T08:59:32;0.90;99.90
13880;DHT22;7010;48.200;16.332;2022-12-29T09:02:02;0.90;99.90
13880;DHT22;7010;48.200;16.332;2022-12-29T09:04:31;1.00;99.90
13880;DHT22;7010;48.200;16.332;2022-12-29T09:06:59;1.00;99.90
13880;DHT22;7010;48.200;16.332;2022-12-29T09:09:27;1.10;99.90
13880;DHT22;7010;48.200;16.332;2022-12-29T09:11:56;1.10;99.90
13880;DHT22;7010;48.200;16.332;2022-12-29T09:14:24;1.10;99.90
13880;DHT22;7010;48.200;16.332;2022-12-29T09:16:53;1.20;99.90
13880;DHT22;7010;48.200;16.332;2022-12-29T09:19:40;1.10;99.90
13880;DHT22;7010;48.200;16.332;2022-12-29T09:22:08;1.20;99.90
13880;DHT22;7010;48.200;16.332;2022-12-29T09:24:37;1.20;99.90
13880;DHT22;7010;48.200;16.332;2022-12-29T09:27:05;1.30;99.90
13880;DHT22;7010;48.200;16.332;2022-12-29T09:29:33;1.30;99.90
13880;DHT22;7010;48.200;16.332;2022-12-29T09:32:02;1.40;99.90
13880;DHT22;7010;48.200;16.332;2022-12-29T09:34:34;1.40;99.90
13880;DHT22;7010;48.200;16.332;2022-12-29T09:37:03;1.30;99.90
13880;DHT22;7010;48.200;16.332;2022-12-29T09:39:32;1.40;99.90
13880;DHT22;7010;48.200;16.332;2022-12-29T09:42:06;1.40;99.90
13880;DHT22;7010;48.200;16.332;2022-12-29T09:44:48;1.40;99.90
13880;DHT22;7010;48.200;16.332;2022-12-29T09:47:19;1.40;99.90
13880;DHT22;7010;48.200;16.332;2022-12-29T09:49:53;1.40;99.90
13880;DHT22;7010;48.200;16.332;2022-12-29T09:52:26;1.40;99.90
13880;DHT22;7010;48.200;16.332;2022-12-29T09:54:57;1.30;99.90
13880;DHT22;7010;48.200;16.332;2022-12-29T09:57:38;1.30;99.90
13880;DHT22;7010;48.200;16.332;2022-12-29T10:00:12;1.20;99.90
13880;DHT22;7010;48.200;16.332;2022-12-29T10:02:44;1.20;99.90
13880;DHT22;7010;48.200;16.332;2022-12-29T10:05:27;1.20;99.90
13880;DHT22;7010;48.200;16.332;2022-12-29T10:08:10;1.20;99.90
13880;DHT22;7010;48.200;16.332;2022-12-29T10:10:48;1.20;99.90
13880;DHT22;7010;48.200;16.332;2022-12-29T10:13:29;1.30;99.90
13880;DHT22;7010;48.200;16.332;2022-12-29T10:16:06;1.40;99.90
13880;DHT22;7010;48.200;16.332;2022-12-29T10:18:52;1.40;99.90
13880;DHT22;7010;48.200;16.332;2022-12-29T10:21:37;1.40;99.90
13880;DHT22;7010;48.200;16.332;2022-12-29T10:24:12;1.40;99.90
13880;DHT22;7010;48.200;16.332;2022-12-29T10:26:41;1.30;99.90
13880;DHT22;7010;48.200;16.332;2022-12-29T10:29:15;1.50;99.90
13880;DHT22;7010;48.200;16.332;2022-12-29T10:31:47;1.50;99.90
13880;DHT22;7010;48.200;16.332;2022-12-29T10:34:21;1.70;99.90
13880;DHT22;7010;48.200;16.332;2022-12-29T10:36:55;1.80;99.90
13880;DHT22;7010;48.200;16.332;2022-12-29T10:39:31;1.90;99.90
13880;DHT22;7010;48.200;16.332;2022-12-29T10:42:07;1.90;99.90
13880;DHT22;7010;48.200;16.332;2022-12-29T10:44:37;1.80;99.90
13880;DHT22;7010;48.200;16.332;2022-12-29T10:47:10;1.90;99.90
13880;DHT22;7010;48.200;16.332;2022-12-29T10:49:41;1.80;99.90
13880;DHT22;7010;48.200;16.332;2022-12-29T10:52:11;1.90;99.90
13880;DHT22;7010;48.200;16.332;2022-12-29T10:54:47;1.90;99.90
13880;DHT22;7010;48.200;16.332;2022-12-29T10:57:24;1.90;99.90
13880;DHT22;7010;48.200;16.332;2022-12-29T10:59:54;1.80;99.90
13880;DHT22;7010;48.200;16.332;2022-12-29T11:05:27;1.80;99.90
13880;DHT22;7010;48.200;16.332;2022-12-29T11:08:03;1.80;99.90
13880;DHT22;7010;48.200;16.332;2022-12-29T11:10:37;1.80;99.90
13880;DHT22;7010;48.200;16.332;2022-12-29T11:13:13;1.80;99.90
13880;DHT22;7010;48.200;16.332;2022-12-29T11:15:44;1.80;99.90
13880;DHT22;7010;48.200;16.332;2022-12-29T11:18:23;1.70;99.90
13880;DHT22;7010;48.200;16.332;2022-12-29T11:20:54;1.80;99.90
13880;DHT22;7010;48.200;16.332;2022-12-29T11:23:26;1.90;99.90
13880;DHT22;7010;48.200;16.332;2022-12-29T11:26:23;1.90;99.90
13880;DHT22;7010;48.200;16.332;2022-12-29T11:29:20;1.90;99.90
13880;DHT22;7010;48.200;16.332;2022-12-29T11:31:50;1.90;99.90
13880;DHT22;7010;48.200;16.332;2022-12-29T11:34:21;1.90;99.90
13880;DHT22;7010;48.200;16.332;2022-12-29T11:36:51;1.80;99.90
13880;DHT22;7010;48.200;16.332;2022-12-29T11:39:30;1.90;99.90
13880;DHT22;7010;48.200;16.332;2022-12-29T11:42:02;2.10;99.90
13880;DHT22;7010;48.200;16.332;2022-12-29T11:44:36;2.20;99.90
13880;DHT22;7010;48.200;16.332;2022-12-29T11:47:05;2.20;99.90
13880;DHT22;7010;48.200;16.332;2022-12-29T11:49:35;2.30;99.90
13880;DHT22;7010;48.200;16.332;2022-12-29T11:52:04;2.20;99.90
13880;DHT22;7010;48.200;16.332;2022-12-29T11:54:35;2.20;99.90
13880;DHT22;7010;48.200;16.332;2022-12-29T11:57:14;2.10;99.90
13880;DHT22;7010;48.200;16.332;2022-12-29T11:59:43;2.00;99.90
13880;DHT22;7010;48.200;16.332;2022-12-29T12:02:45;2.10;99.90
13880;DHT22;7010;48.200;16.332;2022-12-29T12:05:26;2.20;99.90
13880;DHT22;7010;48.200;16.332;2022-12-29T12:08:01;2.30;99.90
13880;DHT22;7010;48.200;16.332;2022-12-29T12:10:32;2.30;99.90
13880;DHT22;7010;48.200;16.332;2022-12-29T12:13:16;2.30;99.90
13880;DHT22;7010;48.200;16.332;2022-12-29T12:15:51;2.30;99.90
13880;DHT22;7010;48.200;16.332;2022-12-29T12:18:30;2.30;99.90
13880;DHT22;7010;48.200;16.332;2022-12-29T12:21:12;2.40;99.90
13880;DHT22;7010;48.200;16.332;2022-12-29T12:26:37;2.30;99.90
13880;DHT22;7010;48.200;16.332;2022-12-29T12:29:14;2.30;99.90
13880;DHT22;7010;48.200;16.332;2022-12-29T12:31:47;2.30;99.90
13880;DHT22;7010;48.200;16.332;2022-12-29T12:34:22;2.40;99.90
13880;DHT22;7010;48.200;16.332;2022-12-29T12:37:11;2.40;99.90
13880;DHT22;7010;48.200;16.332;2022-12-29T12:39:49;2.50;99.90
13880;DHT22;7010;48.200;16.332;2022-12-29T12:42:33;2.50;99.90
13880;DHT22;7010;48.200;16.332;2022-12-29T12:45:26;2.50;99.90
13880;DHT22;7010;48.200;16.332;2022-12-29T12:48:06;2.60;99.90
13880;DHT22;7010;48.200;16.332;2022-12-29T12:50:47;2.60;99.90
13880;DHT22;7010;48.200;16.332;2022-12-29T12:56:30;2.80;99.90
13880;DHT22;7010;48.200;16.332;2022-12-29T12:59:09;2.80;99.90
13880;DHT22;7010;48.200;16.332;2022-12-29T13:01:50;2.90;99.90
13880;DHT22;7010;48.200;16.332;2022-12-29T13:04:46;2.90;99.90
13880;DHT22;7010;48.200;16.332;2022-12-29T13:07:23;3.00;99.90
13880;DHT22;7010;48.200;16.332;2022-12-29T13:10:13;3.10;99.90
13880;DHT22;7010;48.200;16.332;2022-12-29T13:12:49;3.20;99.90
13880;DHT22;7010;48.200;16.332;2022-12-29T13:15:39;3.20;99.90
13880;DHT22;7010;48.200;16.332;2022-12-29T13:18:20;3.10;99.90
13880;DHT22;7010;48.200;16.332;2022-12-29T13:20:53;3.00;99.90
13880;DHT22;7010;48.200;16.332;2022-12-29T13:23:29;3.00;99.90
13880;DHT22;7010;48.200;16.332;2022-12-29T13:26:06;3.00;99.90
13880;DHT22;7010;48.200;16.332;2022-12-29T13:28:49;3.00;99.90
13880;DHT22;7010;48.200;16.332;2022-12-29T13:31:20;2.90;99.90
13880;DHT22;7010;48.200;16.332;2022-12-29T13:33:58;3.00;99.90
13880;DHT22;7010;48.200;16.332;2022-12-29T13:36:35;3.00;99.90
13880;DHT22;7010;48.200;16.332;2022-12-29T13:39:10;3.00;99.90
13880;DHT22;7010;48.200;16.332;2022-12-29T13:41:49;2.90;99.90
13880;DHT22;7010;48.200;16.332;2022-12-29T13:44:22;2.80;99.90
13880;DHT22;7010;48.200;16.332;2022-12-29T13:46:51;2.80;99.90
13880;DHT22;7010;48.200;16.332;2022-12-29T13:49:23;2.80;99.90
13880;DHT22;7010;48.200;16.332;2022-12-29T13:51:53;2.70;99.90
13880;DHT22;7010;48.200;16.332;2022-12-29T13:54:32;2.70;99.90
13880;DHT22;7010;48.200;16.332;2022-12-29T13:57:08;2.70;99.90
13880;DHT22;7010;48.200;16.332;2022-12-29T13:59:44;2.70;99.90
13880;DHT22;7010;48.200;16.332;2022-12-29T14:02:29;2.70;99.90
13880;DHT22;7010;48.200;16.332;2022-12-29T14:05:04;2.70;99.90
13880;DHT22;7010;48.200;16.332;2022-12-29T14:07:37;2.70;99.90
13880;DHT22;7010;48.200;16.332;2022-12-29T14:10:06;2.70;99.90
13880;DHT22;7010;48.200;16.332;2022-12-29T14:12:37;2.60;99.90
13880;DHT22;7010;48.200;16.332;2022-12-29T14:15:22;2.70;99.90
13880;DHT22;7010;48.200;16.332;2022-12-29T14:18:03;2.60;99.90
13880;DHT22;7010;48.200;16.332;2022-12-29T14:20:34;2.60;99.90
13880;DHT22;7010;48.200;16.332;2022-12-29T14:23:16;2.60;99.90
13880;DHT22;7010;48.200;16.332;2022-12-29T14:25:54;2.60;99.90
13880;DHT22;7010;48.200;16.332;2022-12-29T14:28:26;2.50;99.90
13880;DHT22;7010;48.200;16.332;2022-12-29T14:30:56;2.40;99.90
13880;DHT22;7010;48.200;16.332;2022-12-29T14:33:30;2.40;99.90
13880;DHT22;7010;48.200;16.332;2022-12-29T14:36:21;2.40;99.90
13880;DHT22;7010;48.200;16.332;2022-12-29T14:38:51;2.40;99.90
13880;DHT22;7010;48.200;16.332;2022-12-29T14:41:32;2.40;99.90
13880;DHT22;7010;48.200;16.332;2022-12-29T14:44:10;2.40;99.90
13880;DHT22;7010;48.200;16.332;2022-12-29T14:46:49;2.40;99.90
13880;DHT22;7010;48.200;16.332;2022-12-29T14:49:24;2.40;99.90
13880;DHT22;7010;48.200;16.332;2022-12-29T14:52:04;2.30;99.90
13880;DHT22;7010;48.200;16.332;2022-12-29T14:54:51;2.30;99.90
13880;DHT22;7010;48.200;16.332;2022-12-29T14:57:30;2.30;99.90
13880;DHT22;7010;48.200;16.332;2022-12-29T15:00:06;2.30;99.90
13880;DHT22;7010;48.200;16.332;2022-12-29T15:02:39;2.30;99.90
13880;DHT22;7010;48.200;16.332;2022-12-29T15:05:27;2.30;99.90
13880;DHT22;7010;48.200;16.332;2022-12-29T15:07:58;2.30;99.90
13880;DHT22;7010;48.200;16.332;2022-12-29T15:10:33;2.30;99.90
13880;DHT22;7010;48.200;16.332;2022-12-29T15:13:05;2.20;99.90
13880;DHT22;7010;48.200;16.332;2022-12-29T15:15:37;2.20;99.90
13880;DHT22;7010;48.200;16.332;2022-12-29T15:18:14;2.30;99.90
13880;DHT22;7010;48.200;16.332;2022-12-29T15:20:42;2.20;99.90
13880;DHT22;7010;48.200;16.332;2022-12-29T15:23:13;2.20;99.90
13880;DHT22;7010;48.200;16.332;2022-12-29T15:25:47;2.30;99.90
13880;DHT22;7010;48.200;16.332;2022-12-29T15:28:17;2.30;99.90
13880;DHT22;7010;48.200;16.332;2022-12-29T15:30:55;2.30;99.90
13880;DHT22;7010;48.200;16.332;2022-12-29T15:33:26;2.30;99.90
13880;DHT22;7010;48.200;16.332;2022-12-29T15:35:56;2.30;99.90
13880;DHT22;7010;48.200;16.332;2022-12-29T15:38:28;2.30;99.90
13880;DHT22;7010;48.200;16.332;2022-12-29T15:41:08;2.30;99.90
13880;DHT22;7010;48.200;16.332;2022-12-29T15:43:51;2.30;99.90
13880;DHT22;7010;48.200;16.332;2022-12-29T15:46:21;2.30;99.90
13880;DHT22;7010;48.200;16.332;2022-12-29T15:48:50;2.30;99.90
13880;DHT22;7010;48.200;16.332;2022-12-29T15:51:22;2.30;99.90
13880;DHT22;7010;48.200;16.332;2022-12-29T15:53:55;2.30;99.90
13880;DHT22;7010;48.200;16.332;2022-12-29T15:56:24;2.30;99.90
13880;DHT22;7010;48.200;16.332;2022-12-29T15:58:53;2.20;99.90
13880;DHT22;7010;48.200;16.332;2022-12-29T16:01:30;2.20;99.90
13880;DHT22;7010;48.200;16.332;2022-12-29T16:04:00;2.30;99.90
13880;DHT22;7010;48.200;16.332;2022-12-29T16:06:30;2.20;99.90
13880;DHT22;7010;48.200;16.332;2022-12-29T16:09:03;2.20;99.90
13880;DHT22;7010;48.200;16.332;2022-12-29T16:11:34;2.20;99.90
13880;DHT22;7010;48.200;16.332;2022-12-29T16:14:08;2.20;99.90
13880;DHT22;7010;48.200;16.332;2022-12-29T16:16:39;2.20;99.90
13880;DHT22;7010;48.200;16.332;2022-12-29T16:19:13;2.20;99.90
13880;DHT22;7010;48.200;16.332;2022-12-29T16:21:43;2.20;99.90
13880;DHT22;7010;48.200;16.332;2022-12-29T16:24:16;2.20;99.90
13880;DHT22;7010;48.200;16.332;2022-12-29T16:26:47;2.20;99.90
13880;DHT22;7010;48.200;16.332;2022-12-29T16:29:17;2.30;99.90
13880;DHT22;7010;48.200;16.332;2022-12-29T16:31:52;2.30;99.90
13880;DHT22;7010;48.200;16.332;2022-12-29T16:34:29;2.30;99.90